Terminal Aerodrome Forecast
Issued by NWS

Home | Current Version | Previous Version | Text Only | Print | Product List | Glossary On
Versions: 1 2 3 4 5 6 7 8 9 10 11 12 13 14 15 16 17 18 19 20
294
FTPA31 PHFO 290012 AAA
TAFHNY
TAF AMD
PHNY 290012Z 2900/2924 29007KT P6SM SCT020 BKN035
     FM290300 VRB06KT P6SM VCSH SCT018 BKN035
     FM290700 VRB05KT P6SM FEW018 SCT035
     FM292100 VRB06KT P6SM VCSH SCT020 BKN035=

USA.gov is the U.S. government's official web portal to all federal, state and local government web resources and services.